createdAt,value
2018-01-03T00:02:09.607Z,95768.12
2018-01-03T00:04:37.333Z,95758.33
2018-01-03T00:07:03.217Z,95761.34
2018-01-03T00:09:32.380Z,95759.83
2018-01-03T00:11:58.223Z,95748.27
2018-01-03T00:14:26.083Z,95735.14
2018-01-03T00:16:51.887Z,95728.78
2018-01-03T00:19:20.956Z,95721.18
2018-01-03T00:21:46.828Z,95715.02
2018-01-03T00:24:16.470Z,95706.41
2018-01-03T00:26:42.402Z,95698.71
2018-01-03T00:29:11.159Z,95696.05
2018-01-03T00:31:36.972Z,95702.00
2018-01-03T00:34:02.843Z,95686.08
2018-01-03T00:36:28.674Z,95685.50
2018-01-03T00:38:54.821Z,95675.19
2018-01-03T00:41:23.501Z,95655.38
2018-01-03T00:43:49.417Z,95649.42
2018-01-03T00:46:17.016Z,95639.37
2018-01-03T00:48:42.910Z,95628.98
2018-01-03T00:51:12.026Z,95631.98
2018-01-03T00:53:37.898Z,95640.97
2018-01-03T00:56:07.129Z,95622.02
2018-01-03T00:58:32.968Z,95615.36
2018-01-03T01:01:01.906Z,95615.76
2018-01-03T01:03:27.749Z,95608.54
2018-01-03T01:05:55.320Z,95612.25
2018-01-03T01:08:21.186Z,95610.34
2018-01-03T01:10:47.033Z,95590.45
2018-01-03T01:13:12.904Z,95595.59
2018-01-03T01:15:38.803Z,95598.56
2018-01-03T01:18:07.877Z,95605.22
2018-01-03T01:20:33.742Z,95598.70
2018-01-03T01:23:02.915Z,95605.77
2018-01-03T01:25:28.779Z,95602.06
2018-01-03T01:27:56.566Z,95601.48
2018-01-03T01:30:22.461Z,95588.48
2018-01-03T01:32:52.752Z,95596.50
2018-01-03T01:35:18.633Z,95598.60
2018-01-03T01:37:46.271Z,95584.02
2018-01-03T01:40:12.212Z,95581.06
2018-01-03T01:42:41.443Z,95576.41
2018-01-03T01:45:07.315Z,95549.11
2018-01-03T01:47:33.234Z,95517.28
2018-01-03T01:49:59.126Z,95520.02
2018-01-03T01:52:24.960Z,95517.42
2018-01-03T01:54:52.568Z,95511.89
2018-01-03T01:57:18.444Z,95506.52
2018-01-03T01:59:47.800Z,95523.70
2018-01-03T02:02:13.707Z,95519.02
2018-01-03T02:04:43.436Z,95513.68
2018-01-03T02:07:09.305Z,95502.55
2018-01-03T02:09:38.653Z,95500.51
2018-01-03T02:12:04.528Z,95472.86
2018-01-03T02:14:31.609Z,95477.75
2018-01-03T02:16:57.468Z,95479.09
2018-01-03T02:19:27.574Z,95463.34
2018-01-03T02:21:53.498Z,95460.20
2018-01-03T02:24:19.309Z,95456.69
2018-01-03T02:26:45.189Z,95465.67
2018-01-03T02:29:11.078Z,95451.45
2018-01-03T02:31:38.505Z,95438.33
2018-01-03T02:34:04.443Z,95422.20
2018-01-03T02:36:33.544Z,95397.89
2018-01-03T02:38:59.391Z,95364.67
2018-01-03T02:41:27.561Z,95357.63
2018-01-03T02:43:53.429Z,95330.11
2018-01-03T02:46:22.253Z,95318.94
2018-01-03T02:48:48.140Z,95295.78
2018-01-03T02:51:18.244Z,95290.17
2018-01-03T02:53:44.115Z,95282.30
2018-01-03T02:56:11.596Z,95283.77
2018-01-03T02:58:37.446Z,95270.96
2018-01-03T03:01:03.320Z,95258.70
2018-01-03T03:03:29.225Z,95239.87
2018-01-03T03:05:55.093Z,95249.05
2018-01-03T03:08:24.688Z,95231.43
2018-01-03T03:10:50.567Z,95223.20
2018-01-03T03:13:19.678Z,95225.31
2018-01-03T03:15:45.579Z,95201.87
2018-01-03T03:18:12.908Z,95190.63
2018-01-03T03:20:38.766Z,95168.83
2018-01-03T03:23:07.446Z,95146.02
2018-01-03T03:25:33.292Z,95139.58
2018-01-03T03:28:02.769Z,95131.84
2018-01-03T03:30:28.641Z,95111.76
2018-01-03T03:32:58.423Z,95076.50
2018-01-03T03:35:24.325Z,95068.09
2018-01-03T03:37:50.179Z,95067.70
2018-01-03T03:40:16.006Z,95060.64
2018-01-03T03:42:41.902Z,95060.50
2018-01-03T03:45:08.793Z,95047.73
2018-01-03T03:47:34.677Z,95012.11
2018-01-03T03:50:04.059Z,95007.06
2018-01-03T03:52:29.944Z,94995.27
2018-01-03T03:54:59.046Z,94986.34
2018-01-03T03:57:24.924Z,94980.94
2018-01-03T03:59:53.890Z,94952.92
2018-01-03T04:02:19.726Z,94941.66
2018-01-03T04:04:47.378Z,94939.81
2018-01-03T04:07:13.264Z,94932.36
2018-01-03T04:09:42.184Z,94946.77
2018-01-03T04:12:08.060Z,94946.80
2018-01-03T04:14:33.922Z,94918.90
2018-01-03T04:16:59.815Z,94899.63
2018-01-03T04:19:25.680Z,94915.13
2018-01-03T04:21:54.442Z,94897.06
2018-01-03T04:24:20.300Z,94862.36
2018-01-03T04:26:49.599Z,94836.59
2018-01-03T04:29:15.459Z,94809.42
2018-01-03T04:31:44.931Z,94814.42
2018-01-03T04:34:10.842Z,94789.09
2018-01-03T04:36:39.832Z,94777.89
2018-01-03T04:39:05.707Z,94765.94
2018-01-03T04:41:33.172Z,94749.53
2018-01-03T04:43:59.069Z,94727.74
2018-01-03T04:46:28.363Z,94714.86
2018-01-03T04:48:54.219Z,94692.86
2018-01-03T04:51:20.119Z,94689.51
2018-01-03T04:53:46.017Z,94730.50
2018-01-03T04:56:11.915Z,94727.57
2018-01-03T04:58:39.348Z,94677.55
2018-01-03T05:01:05.186Z,94694.52
2018-01-03T05:03:34.551Z,94645.49
2018-01-03T05:06:00.435Z,94679.91
2018-01-03T05:08:28.841Z,94665.06
2018-01-03T05:10:54.688Z,94665.68
2018-01-03T05:13:27.398Z,94649.28
2018-01-03T05:15:53.253Z,94608.39
2018-01-03T05:18:19.184Z,94603.63
2018-01-03T05:20:45.049Z,94593.87
2018-01-03T05:23:14.317Z,94568.21
2018-01-03T05:25:40.211Z,94533.78
2018-01-03T05:28:06.106Z,94527.14
2018-01-03T05:30:31.985Z,94514.92
2018-01-03T05:32:57.852Z,94500.38
2018-01-03T05:35:25.142Z,94490.17
2018-01-03T05:37:51.017Z,94468.25
2018-01-03T05:40:20.348Z,94482.02
2018-01-03T05:42:46.181Z,94423.44
2018-01-03T05:45:14.249Z,94420.63
2018-01-03T05:47:40.144Z,94383.75
2018-01-03T05:50:09.745Z,94389.63
2018-01-03T05:52:35.588Z,94370.97
2018-01-03T05:55:03.505Z,94384.35
2018-01-03T05:57:29.369Z,94369.86
2018-01-03T05:59:58.448Z,94374.55
2018-01-03T06:02:24.354Z,94361.03
2018-01-03T06:04:50.208Z,94453.58
2018-01-03T06:07:16.102Z,94384.79
2018-01-03T06:09:41.950Z,94396.73
2018-01-03T06:12:09.651Z,94322.86
2018-01-03T06:14:35.493Z,94327.84
2018-01-03T06:19:32.274Z,94305.63
2018-01-03T06:21:59.776Z,94343.41
2018-01-03T06:24:25.654Z,94342.19
2018-01-03T06:26:54.766Z,94314.78
2018-01-03T06:29:20.690Z,94304.88
2018-01-03T06:31:48.871Z,94297.48
2018-01-03T06:34:14.773Z,94295.29
2018-01-03T06:36:44.454Z,94343.13
2018-01-03T06:39:10.291Z,94294.33
2018-01-03T06:41:36.210Z,94259.53
2018-01-03T06:44:02.113Z,94266.01
2018-01-03T06:46:28.020Z,94280.52
2018-01-03T06:48:57.190Z,94291.55
2018-01-03T06:51:23.061Z,94285.66
2018-01-03T06:53:50.224Z,94247.73
2018-01-03T06:56:16.100Z,94244.91
2018-01-03T06:58:44.428Z,94263.78
2018-01-03T07:01:10.308Z,94220.07
2018-01-03T07:03:39.236Z,94223.94
2018-01-03T07:06:05.144Z,94287.83
2018-01-03T07:08:34.060Z,94252.69
2018-01-03T07:10:59.948Z,94266.72
2018-01-03T07:13:28.778Z,94279.72
2018-01-03T07:15:54.691Z,94281.92
2018-01-03T07:18:20.574Z,94297.75
2018-01-03T07:20:46.419Z,94408.19
2018-01-03T07:23:12.306Z,94517.78
2018-01-03T07:25:41.970Z,94537.61
2018-01-03T07:28:07.821Z,94553.99
2018-01-03T07:30:36.913Z,94552.32
2018-01-03T07:33:02.782Z,94540.09
2018-01-03T07:35:30.190Z,94532.27
2018-01-03T07:37:56.076Z,94526.03
2018-01-03T07:40:25.117Z,94579.14
2018-01-03T07:42:51.007Z,94553.08
2018-01-03T07:45:20.151Z,94558.63
2018-01-03T07:47:45.945Z,94554.75
2018-01-03T07:50:15.051Z,94547.11
2018-01-03T07:52:40.889Z,94541.77
2018-01-03T07:55:06.739Z,94535.20
2018-01-03T07:57:32.601Z,94559.13
2018-01-03T07:59:58.437Z,94583.43
2018-01-03T08:02:25.805Z,94585.22
2018-01-03T08:04:51.680Z,94592.45
2018-01-03T08:07:20.780Z,94572.33
2018-01-03T08:09:46.656Z,94529.42
2018-01-03T08:12:15.790Z,94525.39
2018-01-03T08:14:41.621Z,94494.16
2018-01-03T08:17:11.390Z,94552.17
2018-01-03T08:19:37.236Z,94605.59
2018-01-03T08:22:06.588Z,94634.97
2018-01-03T08:24:32.471Z,94635.77
2018-01-03T08:26:59.662Z,94652.93
2018-01-03T08:29:25.485Z,94636.48
2018-01-03T08:31:51.359Z,94609.02
2018-01-03T08:34:17.172Z,94569.25
2018-01-03T08:36:43.015Z,94572.60
2018-01-03T08:39:11.019Z,94566.93
2018-01-03T08:41:36.857Z,94573.82
2018-01-03T08:44:05.611Z,94598.41
2018-01-03T08:46:31.466Z,94601.64
2018-01-03T08:49:00.287Z,94620.09
2018-01-03T08:51:26.192Z,94635.25
2018-01-03T08:53:55.410Z,94617.05
2018-01-03T08:56:21.298Z,94613.67
2018-01-03T08:58:49.915Z,94620.13
2018-01-03T09:01:15.741Z,94604.45
2018-01-03T09:03:45.240Z,94588.46
2018-01-03T09:06:11.184Z,94597.45
2018-01-03T09:08:37.015Z,94589.84
2018-01-03T09:11:02.880Z,94583.71
2018-01-03T09:13:28.772Z,94598.94
2018-01-03T09:15:58.151Z,94567.23
2018-01-03T09:18:23.998Z,94574.62
2018-01-03T09:20:51.590Z,94586.19
2018-01-03T09:23:17.423Z,94598.13
2018-01-03T09:25:46.557Z,94585.80
2018-01-03T09:28:12.369Z,94528.88
2018-01-03T09:30:40.819Z,94591.50
2018-01-03T09:33:06.671Z,94652.36
2018-01-03T09:35:36.021Z,94675.53
2018-01-03T09:38:01.870Z,94731.98
2018-01-03T09:40:30.822Z,94703.39
2018-01-03T09:42:56.672Z,94721.19
2018-01-03T09:45:22.543Z,94702.81
2018-01-03T09:47:48.413Z,94709.92
2018-01-03T09:50:14.313Z,94721.20
2018-01-03T09:52:43.435Z,94714.95
2018-01-03T09:55:09.307Z,94682.68
2018-01-03T09:57:36.832Z,94666.70
2018-01-03T10:00:02.695Z,94691.88
2018-01-03T10:02:32.031Z,94662.84
2018-01-03T10:04:57.916Z,94664.19
2018-01-03T10:07:25.907Z,94732.42
2018-01-03T10:09:51.750Z,94761.39
2018-01-03T10:12:21.303Z,94783.64
2018-01-03T10:14:47.115Z,94797.50
2018-01-03T10:17:16.617Z,94820.51
2018-01-03T10:19:42.477Z,94826.16
2018-01-03T10:22:08.312Z,94809.23
2018-01-03T10:24:34.169Z,94781.88
2018-01-03T10:27:00.054Z,94762.38
2018-01-03T10:29:28.910Z,94774.34
2018-01-03T10:31:54.735Z,94789.92
2018-01-03T10:34:21.933Z,94809.27
2018-01-03T10:36:47.792Z,94836.16
2018-01-03T10:39:17.607Z,94838.96
2018-01-03T10:41:43.492Z,94851.02
2018-01-03T10:44:11.748Z,94853.53
2018-01-03T10:46:37.630Z,94849.20
2018-01-03T10:49:07.297Z,94864.61
2018-01-03T10:51:33.197Z,94877.63
2018-01-03T10:54:02.482Z,94873.16
2018-01-03T10:56:28.344Z,94878.64
2018-01-03T10:58:54.219Z,94884.58
2018-01-03T11:01:20.077Z,94896.30
2018-01-03T11:03:46.095Z,94895.97
2018-01-03T11:06:13.066Z,94891.78
2018-01-03T11:08:38.886Z,94907.17
2018-01-03T11:11:06.818Z,94901.94
2018-01-03T11:13:32.670Z,94894.27
2018-01-03T11:18:29.484Z,94868.89
2018-01-03T11:20:56.572Z,94874.89
2018-01-03T11:23:22.426Z,94876.45
2018-01-03T11:25:52.056Z,94863.72
2018-01-03T11:28:17.890Z,94878.64
2018-01-03T11:30:46.903Z,94891.90
2018-01-03T11:33:12.769Z,94892.65
2018-01-03T11:35:38.635Z,94912.09
2018-01-03T11:38:04.504Z,94911.73
2018-01-03T11:40:30.340Z,94937.64
2018-01-03T11:42:57.856Z,94957.30
2018-01-03T11:45:23.698Z,94982.09
2018-01-03T11:47:53.278Z,94979.53
2018-01-03T11:50:19.157Z,94999.68
2018-01-03T11:52:47.990Z,95029.51
2018-01-03T11:55:13.855Z,95023.22
2018-01-03T11:57:41.794Z,95020.91
2018-01-03T12:00:07.638Z,95030.72
2018-01-03T12:02:36.527Z,95059.02
2018-01-03T12:05:02.385Z,95050.47
2018-01-03T12:07:32.008Z,95046.14
2018-01-03T12:09:57.886Z,95022.91
2018-01-03T12:12:23.740Z,95054.75
2018-01-03T12:14:49.638Z,95068.50
2018-01-03T12:17:15.478Z,95073.23
2018-01-03T12:19:42.956Z,95076.11
2018-01-03T12:22:08.853Z,95075.29
2018-01-03T12:24:38.910Z,95080.14
2018-01-03T12:27:04.772Z,95090.32
2018-01-03T12:29:32.480Z,95101.20
2018-01-03T12:31:58.366Z,95081.58
2018-01-03T12:34:27.815Z,95076.59
2018-01-03T12:36:53.788Z,95088.48
2018-01-03T12:39:23.183Z,95087.06
2018-01-03T12:41:49.007Z,95097.34
2018-01-03T12:44:16.736Z,95111.67
2018-01-03T12:46:42.568Z,95116.17
2018-01-03T12:49:08.488Z,95109.89
2018-01-03T12:51:34.327Z,95105.59
2018-01-03T12:54:00.222Z,95114.14
2018-01-03T12:56:29.759Z,95130.27
2018-01-03T12:58:55.616Z,95108.85
2018-01-03T13:01:23.033Z,95110.52
2018-01-03T13:03:49.529Z,95120.31
2018-01-03T13:06:19.243Z,95131.27
2018-01-03T13:08:45.090Z,95118.94
2018-01-03T13:11:12.561Z,95151.20
2018-01-03T13:13:38.405Z,95152.52
2018-01-03T13:16:07.505Z,95162.27
2018-01-03T13:18:33.319Z,95154.83
2018-01-03T13:21:02.674Z,95168.37
2018-01-03T13:23:28.487Z,95189.86
2018-01-03T13:25:55.002Z,95202.25
2018-01-03T13:28:20.861Z,95193.88
2018-01-03T13:30:46.698Z,95200.28
2018-01-03T13:33:14.337Z,95211.52
2018-01-03T13:35:40.174Z,95215.87
2018-01-03T13:38:09.608Z,95208.08
2018-01-03T13:40:35.436Z,95215.92
2018-01-03T13:43:03.256Z,95224.72
2018-01-03T13:45:29.095Z,95241.41
2018-01-03T13:47:58.291Z,95226.62
2018-01-03T13:50:24.149Z,95233.02
2018-01-03T13:52:53.376Z,95247.48
2018-01-03T13:55:19.226Z,95251.61
2018-01-03T13:57:48.571Z,95243.66
2018-01-03T14:00:14.412Z,95248.94
2018-01-03T14:02:40.319Z,95245.28
2018-01-03T14:05:06.175Z,95254.70
2018-01-03T14:07:32.021Z,95246.41
2018-01-03T14:09:59.469Z,95264.39
2018-01-03T14:12:25.301Z,95248.91
2018-01-03T14:14:54.981Z,95261.20
2018-01-03T14:17:20.841Z,95256.44
2018-01-03T14:19:48.338Z,95250.71
2018-01-03T14:22:14.183Z,95255.38
2018-01-03T14:24:44.353Z,95253.20
2018-01-03T14:27:10.162Z,95259.53
2018-01-03T14:29:37.925Z,95275.76
2018-01-03T14:32:03.795Z,95279.46
2018-01-03T14:34:32.681Z,95281.38
2018-01-03T14:36:58.505Z,95305.55
2018-01-03T14:39:24.322Z,95297.59
2018-01-03T14:41:50.195Z,95284.80
2018-01-03T14:44:16.032Z,95306.50
2018-01-03T14:46:45.213Z,95281.72
2018-01-03T14:49:11.042Z,95293.15
2018-01-03T14:51:39.058Z,95300.73
2018-01-03T14:54:04.893Z,95304.97
2018-01-03T14:56:33.539Z,95306.86
2018-01-03T14:58:59.392Z,95312.16
2018-01-03T15:01:28.849Z,95325.52
2018-01-03T15:03:55.647Z,95316.23
2018-01-03T15:06:23.112Z,95339.11
2018-01-03T15:08:48.969Z,95325.81
2018-01-03T15:11:17.512Z,95334.29
2018-01-03T15:13:43.399Z,95338.43
2018-01-03T15:16:09.305Z,95356.64
2018-01-03T15:18:35.166Z,95356.45
2018-01-03T15:21:01.018Z,95368.26
2018-01-03T15:23:32.728Z,95368.97
2018-01-03T15:25:58.575Z,95347.09
2018-01-03T15:28:24.442Z,95356.77
2018-01-03T15:30:50.285Z,95356.55
2018-01-03T15:33:19.175Z,95379.65
2018-01-03T15:35:45.073Z,95360.78
2018-01-03T15:38:14.497Z,95370.43
2018-01-03T15:40:40.336Z,95356.12
2018-01-03T15:43:09.350Z,95363.63
2018-01-03T15:45:35.203Z,95372.75
2018-01-03T15:48:07.442Z,95372.34
2018-01-03T15:50:33.335Z,95376.73
2018-01-03T15:52:59.236Z,95409.09
2018-01-03T15:55:25.064Z,95424.88
2018-01-03T15:57:50.891Z,95421.12
2018-01-03T16:00:16.778Z,95454.06
2018-01-03T16:02:42.687Z,95445.52
2018-01-03T16:05:10.345Z,95457.88
2018-01-03T16:07:36.209Z,95439.48
2018-01-03T16:10:05.328Z,95456.13
2018-01-03T16:12:31.202Z,95457.89
2018-01-03T16:15:00.068Z,95469.25
2018-01-03T16:17:26.011Z,95465.94
2018-01-03T16:19:55.202Z,95445.25
2018-01-03T16:22:21.069Z,95455.44
2018-01-03T16:24:50.436Z,95396.73
2018-01-03T16:27:16.283Z,95442.16
2018-01-03T16:29:42.151Z,95436.44
2018-01-03T16:32:08.068Z,95439.41
2018-01-03T16:34:33.982Z,95445.16
2018-01-03T16:37:00.388Z,95426.84
2018-01-03T16:39:26.285Z,95445.94
2018-01-03T16:41:55.695Z,95333.74
2018-01-03T16:44:21.589Z,95451.66
2018-01-03T16:46:49.682Z,95453.65
2018-01-03T16:49:15.530Z,95437.56
2018-01-03T16:51:51.016Z,95453.26
2018-01-03T16:54:16.896Z,95446.30
2018-01-03T16:56:42.812Z,95434.23
2018-01-03T16:59:08.697Z,95439.12
2018-01-03T17:01:34.599Z,95431.70
2018-01-03T17:04:00.543Z,95428.66
2018-01-03T17:06:26.438Z,95432.61
2018-01-03T17:08:52.307Z,95436.32
2018-01-03T17:11:18.159Z,95434.58
2018-01-03T17:13:46.082Z,95442.49
2018-01-03T17:16:11.952Z,95427.80
2018-01-03T17:18:40.862Z,95440.88
2018-01-03T17:21:06.736Z,95421.05
2018-01-03T17:23:35.010Z,95433.88
2018-01-03T17:26:00.908Z,95439.98
2018-01-03T17:28:30.852Z,95424.72
2018-01-03T17:30:56.715Z,95419.26
2018-01-03T17:33:25.507Z,95437.66
2018-01-03T17:35:51.373Z,95438.05
2018-01-03T17:38:20.654Z,95435.61
2018-01-03T17:40:46.507Z,95420.13
2018-01-03T17:43:12.411Z,95433.52
2018-01-03T17:45:38.290Z,95428.56
2018-01-03T17:48:04.204Z,95447.80
2018-01-03T17:50:31.085Z,95446.12
2018-01-03T17:52:56.937Z,95457.24
2018-01-03T17:55:26.417Z,95443.58
2018-01-03T17:57:52.301Z,95442.22
2018-01-03T18:00:21.111Z,95435.33
2018-01-03T18:02:47.034Z,95445.60
2018-01-03T18:05:14.756Z,95443.69
2018-01-03T18:07:40.668Z,95428.83
2018-01-03T18:10:09.636Z,95441.03
2018-01-03T18:12:35.520Z,95445.78
2018-01-03T18:17:51.532Z,95430.64
2018-01-03T18:20:17.398Z,95441.02
2018-01-03T18:22:43.248Z,95474.05
2018-01-03T18:25:09.100Z,95449.84
2018-01-03T18:30:26.889Z,95455.78
2018-01-03T18:32:52.724Z,95451.80
2018-01-03T18:35:18.571Z,95449.73
2018-01-03T18:37:44.372Z,95459.20
2018-01-03T18:40:10.231Z,95459.30
2018-01-03T18:42:36.073Z,95466.48
2018-01-03T18:45:01.957Z,95461.38
2018-01-03T18:47:27.806Z,95463.32
2018-01-03T18:49:53.629Z,95473.00
2018-01-03T18:52:19.459Z,95478.20
2018-01-03T18:54:45.298Z,95475.99
2018-01-03T18:57:11.116Z,95480.02
2018-01-03T18:59:36.943Z,95474.30
2018-01-03T19:02:02.833Z,95482.31
2018-01-03T19:04:28.632Z,95480.89
2018-01-03T19:06:54.474Z,95487.52
2018-01-03T19:09:20.334Z,95472.22
2018-01-03T19:11:46.182Z,95473.95
2018-01-03T19:14:11.997Z,95477.48
2018-01-03T19:16:37.840Z,95476.70
2018-01-03T19:19:03.682Z,95468.06
2018-01-03T19:21:29.551Z,95477.05
2018-01-03T19:23:55.369Z,95478.81
2018-01-03T19:26:21.197Z,95483.21
2018-01-03T19:28:47.054Z,95474.25
2018-01-03T19:31:12.901Z,95476.32
2018-01-03T19:33:38.716Z,95483.28
2018-01-03T19:36:04.563Z,95501.59
2018-01-03T19:38:30.385Z,95501.69
2018-01-03T19:40:56.238Z,95485.13
2018-01-03T19:43:22.059Z,95489.23
2018-01-03T19:45:47.902Z,95499.05
2018-01-03T19:48:13.746Z,95505.03
2018-01-03T19:50:39.603Z,95509.49
2018-01-03T19:53:05.421Z,95500.23
2018-01-03T19:55:31.252Z,95495.48
2018-01-03T19:57:57.094Z,95495.30
2018-01-03T20:00:26.068Z,95488.63
2018-01-03T20:02:51.874Z,95488.12
2018-01-03T20:05:21.503Z,95495.09
2018-01-03T20:07:47.345Z,95500.21
2018-01-03T20:10:13.218Z,95477.86
2018-01-03T20:12:39.069Z,95490.51
2018-01-03T20:15:04.878Z,95487.66
2018-01-03T20:17:32.520Z,95483.41
2018-01-03T20:19:58.360Z,95466.80
2018-01-03T20:22:26.749Z,95482.30
2018-01-03T20:24:52.585Z,95481.03
2018-01-03T20:27:21.207Z,95487.50
2018-01-03T20:29:47.030Z,95477.21
2018-01-03T20:34:43.753Z,95489.75
2018-01-03T20:37:11.118Z,95483.75
2018-01-03T20:39:36.913Z,95494.45
2018-01-03T20:42:06.518Z,95499.81
2018-01-03T20:44:32.366Z,95503.50
2018-01-03T20:46:58.234Z,95500.86
2018-01-03T20:49:24.087Z,95505.86
2018-01-03T20:51:49.907Z,95495.75
2018-01-03T20:54:17.169Z,95497.66
2018-01-03T20:56:43.034Z,95488.28
2018-01-03T20:59:12.433Z,95477.77
2018-01-03T21:01:38.260Z,95511.17
2018-01-03T21:04:07.335Z,95510.72
2018-01-03T21:06:33.159Z,95523.06
2018-01-03T21:09:03.006Z,95519.31
2018-01-03T21:11:28.819Z,95495.69
2018-01-03T21:13:56.117Z,95499.84
2018-01-03T21:16:21.925Z,95489.08
2018-01-03T21:18:50.937Z,95491.91
2018-01-03T21:21:16.735Z,95484.00
2018-01-03T21:23:42.570Z,95498.01
2018-01-03T21:26:08.401Z,95498.34
2018-01-03T21:28:34.257Z,95519.77
2018-01-03T21:31:03.504Z,95497.50
2018-01-03T21:33:29.354Z,95497.45
2018-01-03T21:35:57.139Z,95497.65
2018-01-03T21:38:22.936Z,95505.41
2018-01-03T21:43:19.503Z,95496.47
2018-01-03T21:45:46.868Z,95510.23
2018-01-03T21:48:12.711Z,95506.88
2018-01-03T21:50:42.352Z,95509.89
2018-01-03T21:53:08.228Z,95510.51
2018-01-03T21:55:37.715Z,95496.85
2018-01-03T21:58:03.533Z,95499.77
2018-01-03T22:00:29.355Z,95496.87
2018-01-03T22:02:55.174Z,95511.15
2018-01-03T22:05:21.048Z,95513.70
2018-01-03T22:07:48.082Z,95503.13
2018-01-03T22:10:13.901Z,95496.09
2018-01-03T22:12:43.519Z,95492.81
2018-01-03T22:15:09.341Z,95517.25
2018-01-03T22:17:38.268Z,95526.16
2018-01-03T22:20:04.093Z,95529.36
2018-01-03T22:22:33.674Z,95537.98
2018-01-03T22:24:59.481Z,95543.38
2018-01-03T22:27:28.667Z,95532.47
2018-01-03T22:29:54.488Z,95545.41
2018-01-03T22:32:21.846Z,95538.52
2018-01-03T22:34:47.734Z,95535.84
2018-01-03T22:37:13.608Z,95532.42
2018-01-03T22:39:39.418Z,95530.76
2018-01-03T22:42:05.262Z,95521.66
2018-01-03T22:44:33.536Z,95525.38
2018-01-03T22:46:59.377Z,95524.70
2018-01-03T22:49:28.808Z,95521.55
2018-01-03T22:51:54.609Z,95535.26
2018-01-03T22:54:25.499Z,95538.12
2018-01-03T22:56:51.378Z,95527.41
2018-01-03T22:59:18.227Z,95517.77
2018-01-03T23:01:44.056Z,95509.75
2018-01-03T23:04:13.407Z,95507.55
2018-01-03T23:06:39.238Z,95498.42
2018-01-03T23:09:07.989Z,95511.29
2018-01-03T23:11:33.818Z,95505.10
2018-01-03T23:13:59.684Z,95496.21
2018-01-03T23:16:25.497Z,95504.20
2018-01-03T23:18:51.302Z,95501.26
2018-01-03T23:21:19.134Z,95503.61
2018-01-03T23:23:44.952Z,95516.17
2018-01-03T23:26:13.985Z,95517.53
2018-01-03T23:28:39.803Z,95508.23
2018-01-03T23:31:09.411Z,95505.71
2018-01-03T23:33:35.253Z,95510.34
2018-01-03T23:36:04.480Z,95509.31
2018-01-03T23:38:30.280Z,95492.33
2018-01-03T23:40:57.723Z,95509.65
2018-01-03T23:43:23.535Z,95502.94
2018-01-03T23:45:52.961Z,95518.45
2018-01-03T23:48:18.853Z,95504.89
2018-01-03T23:50:44.713Z,95492.80
2018-01-03T23:53:10.566Z,95501.97
2018-01-03T23:55:36.394Z,95500.44
2018-01-03T23:58:05.202Z,95491.54
